createdAt,value
2023-04-16T00:01:12.204Z,26.88
2023-04-16T00:03:38.735Z,25.38
2023-04-16T00:06:05.553Z,24.73
2023-04-16T00:08:31.847Z,25.88
2023-04-16T00:10:58.195Z,24.40
2023-04-16T00:13:24.477Z,27.00
2023-04-16T00:15:50.793Z,27.52
2023-04-16T00:18:17.119Z,28.50
2023-04-16T00:20:43.458Z,28.27
2023-04-16T00:23:09.741Z,27.95
2023-04-16T00:25:36.081Z,29.95
2023-04-16T00:28:02.426Z,29.67
2023-04-16T00:30:28.769Z,32.25
2023-04-16T00:32:58.052Z,28.33
2023-04-16T00:35:24.384Z,30.50
2023-04-16T00:37:50.671Z,27.92
2023-04-16T00:40:17.127Z,26.73
2023-04-16T00:42:43.444Z,29.95
2023-04-16T00:45:10.671Z,29.77
2023-04-16T00:47:37.141Z,27.50
2023-04-16T00:50:04.463Z,27.45
2023-04-16T00:52:32.607Z,26.92
2023-04-16T00:54:59.269Z,27.33
2023-04-16T00:57:25.575Z,30.40
2023-04-16T00:59:51.924Z,29.10
2023-04-16T01:02:18.404Z,29.70
2023-04-16T01:04:44.827Z,32.17
2023-04-16T01:07:11.194Z,28.73
2023-04-16T01:09:37.504Z,30.05
2023-04-16T01:12:03.937Z,29.25
2023-04-16T01:14:30.293Z,30.23
2023-04-16T01:16:56.654Z,27.27
2023-04-16T01:19:22.955Z,27.23
2023-04-16T01:21:49.261Z,27.80
2023-04-16T01:24:15.565Z,32.53
2023-04-16T01:26:41.881Z,25.23
2023-04-16T01:29:08.426Z,28.23
2023-04-16T01:31:35.160Z,30.88
2023-04-16T01:34:01.528Z,30.25
2023-04-16T01:36:27.819Z,27.45
2023-04-16T01:38:54.130Z,27.52
2023-04-16T01:41:20.398Z,32.08
2023-04-16T01:43:46.771Z,32.30
2023-04-16T01:46:26.942Z,29.90
2023-04-16T01:48:53.847Z,29.27
2023-04-16T01:51:20.881Z,31.05
2023-04-16T01:53:47.313Z,28.23
2023-04-16T01:56:13.615Z,29.77
2023-04-16T01:58:39.927Z,29.85
2023-04-16T02:01:06.251Z,30.48
2023-04-16T02:03:32.942Z,31.45
2023-04-16T02:05:59.523Z,30.98
2023-04-16T02:08:25.842Z,29.52
2023-04-16T02:10:52.333Z,28.40
2023-04-16T02:13:20.182Z,28.00
2023-04-16T02:15:50.564Z,30.73
2023-04-16T02:18:17.033Z,28.90
2023-04-16T02:20:44.801Z,32.83
2023-04-16T02:23:11.947Z,29.25
2023-04-16T02:28:11.562Z,30.58
2023-04-16T02:30:39.128Z,33.90
2023-04-16T02:33:06.543Z,32.47
2023-04-16T02:35:36.769Z,30.10
2023-04-16T02:38:04.209Z,31.70
2023-04-16T02:40:30.976Z,32.80
2023-04-16T02:42:57.895Z,28.50
2023-04-16T02:45:24.826Z,30.13
2023-04-16T02:47:51.430Z,27.70
2023-04-16T02:50:18.055Z,27.23
2023-04-16T02:52:44.464Z,28.35
2023-04-16T02:55:11.358Z,30.00
2023-04-16T02:57:37.656Z,29.35
2023-04-16T03:00:04.465Z,28.30
2023-04-16T03:02:31.005Z,30.58
2023-04-16T03:04:57.496Z,31.55
2023-04-16T03:07:23.872Z,30.52
2023-04-16T03:09:50.156Z,30.95
2023-04-16T03:12:24.806Z,30.73
2023-04-16T03:14:51.518Z,28.63
2023-04-16T03:17:18.106Z,29.88
2023-04-16T03:19:44.430Z,33.50
2023-04-16T03:22:10.755Z,32.60
2023-04-16T03:24:37.091Z,34.08
2023-04-16T03:27:03.518Z,36.67
2023-04-16T03:29:29.848Z,37.75
2023-04-16T03:31:56.170Z,40.42
2023-04-16T03:34:22.472Z,43.53
2023-04-16T03:36:48.795Z,44.28
2023-04-16T03:39:15.097Z,44.58
2023-04-16T03:41:41.398Z,39.75
2023-04-16T03:44:07.730Z,44.88
2023-04-16T03:46:34.111Z,44.22
2023-04-16T03:49:03.435Z,43.38
2023-04-16T03:51:29.744Z,45.17
2023-04-16T03:53:56.061Z,45.45
2023-04-16T03:56:22.395Z,42.08
2023-04-16T03:58:48.703Z,46.15
2023-04-16T04:01:15.009Z,43.28
2023-04-16T04:03:41.563Z,47.40
2023-04-16T04:06:08.896Z,47.15
2023-04-16T04:08:35.415Z,42.08
2023-04-16T04:11:01.753Z,45.22
2023-04-16T04:13:28.099Z,48.80
2023-04-16T04:15:54.443Z,42.95
2023-04-16T04:18:20.837Z,48.92
2023-04-16T04:20:47.195Z,48.95
2023-04-16T04:23:13.489Z,43.50
2023-04-16T04:25:39.792Z,46.88
2023-04-16T04:28:06.082Z,47.92
2023-04-16T04:30:32.438Z,42.50
2023-04-16T04:32:58.806Z,41.85
2023-04-16T04:35:25.177Z,45.38
2023-04-16T04:37:51.466Z,45.80
2023-04-16T04:40:17.785Z,42.65
2023-04-16T04:42:44.140Z,40.58
2023-04-16T04:45:10.807Z,49.42
2023-04-16T04:47:37.213Z,40.35
2023-04-16T04:50:03.836Z,42.38
2023-04-16T04:52:30.114Z,46.65
2023-04-16T04:54:57.149Z,40.17
2023-04-16T04:57:23.558Z,47.20
2023-04-16T04:59:49.877Z,40.63
2023-04-16T05:02:16.319Z,43.83
2023-04-16T05:04:42.724Z,43.70
2023-04-16T05:07:09.083Z,45.15
2023-04-16T05:09:35.446Z,46.45
2023-04-16T05:12:01.816Z,46.03
2023-04-16T05:14:28.187Z,52.95
2023-04-16T05:16:54.516Z,47.13
2023-04-16T05:19:20.917Z,50.92
2023-04-16T05:21:47.229Z,46.40
2023-04-16T05:24:15.003Z,53.60
2023-04-16T05:26:41.446Z,56.78
2023-04-16T05:29:07.944Z,50.97
2023-04-16T05:31:34.380Z,49.25
2023-04-16T05:34:00.744Z,54.85
2023-04-16T05:36:27.578Z,51.30
2023-04-16T05:38:53.901Z,54.60
2023-04-16T05:41:20.194Z,50.40
2023-04-16T05:43:46.472Z,50.38
2023-04-16T05:46:12.851Z,53.83
2023-04-16T05:48:39.216Z,50.08
2023-04-16T05:51:05.656Z,47.75
2023-04-16T05:53:32.048Z,54.58
2023-04-16T05:55:58.317Z,51.85
2023-04-16T05:58:24.643Z,58.33
2023-04-16T06:00:51.058Z,51.15
2023-04-16T06:03:17.421Z,53.22
2023-04-16T06:05:44.372Z,48.03
2023-04-16T06:08:10.948Z,56.85
2023-04-16T06:10:37.472Z,45.83
2023-04-16T06:13:03.774Z,49.60
2023-04-16T06:15:30.090Z,47.60
2023-04-16T06:17:56.755Z,47.38
2023-04-16T06:22:49.908Z,44.97
2023-04-16T06:25:18.010Z,43.08
2023-04-16T06:27:44.581Z,41.92
2023-04-16T06:30:15.770Z,40.20
2023-04-16T06:32:43.537Z,43.28
2023-04-16T06:35:10.255Z,49.58
2023-04-16T06:37:36.612Z,42.92
2023-04-16T06:40:03.015Z,41.28
2023-04-16T06:42:29.507Z,36.40
2023-04-16T06:44:55.931Z,34.78
2023-04-16T06:47:22.356Z,37.83
2023-04-16T06:49:48.654Z,36.17
2023-04-16T06:52:15.025Z,38.75
2023-04-16T06:54:44.150Z,33.33
2023-04-16T06:57:10.433Z,41.75
2023-04-16T06:59:36.757Z,36.38
2023-04-16T07:02:03.214Z,34.28
2023-04-16T07:04:29.664Z,36.30
2023-04-16T07:06:55.961Z,33.40
2023-04-16T07:09:22.277Z,35.03
2023-04-16T07:11:48.612Z,34.35
2023-04-16T07:14:14.946Z,31.50
2023-04-16T07:16:41.302Z,31.50
2023-04-16T07:19:07.779Z,29.95
2023-04-16T07:21:34.415Z,32.97
2023-04-16T07:24:00.758Z,27.55
2023-04-16T07:26:27.105Z,28.30
2023-04-16T07:28:53.435Z,26.52
2023-04-16T07:31:19.915Z,24.98
2023-04-16T07:33:46.309Z,29.10
2023-04-16T07:36:12.613Z,27.08
2023-04-16T07:38:38.928Z,34.42
2023-04-16T07:41:05.400Z,27.23
2023-04-16T07:43:31.703Z,27.00
2023-04-16T07:45:58.020Z,25.85
2023-04-16T07:48:24.442Z,28.83
2023-04-16T07:50:50.776Z,27.88
2023-04-16T07:53:17.084Z,30.52
2023-04-16T07:55:43.506Z,27.52
2023-04-16T07:58:09.852Z,30.88
2023-04-16T08:00:36.260Z,31.42
2023-04-16T08:03:02.743Z,27.15
2023-04-16T08:05:29.422Z,29.73
2023-04-16T08:07:55.881Z,35.15
2023-04-16T08:10:22.306Z,31.20
2023-04-16T08:12:48.807Z,29.88
2023-04-16T08:15:15.147Z,28.88
2023-04-16T08:17:41.461Z,30.73
2023-04-16T08:20:08.194Z,31.15
2023-04-16T08:22:34.517Z,29.25
2023-04-16T08:25:02.835Z,31.33
2023-04-16T08:27:29.225Z,28.27
2023-04-16T08:29:55.972Z,29.67
2023-04-16T08:32:26.114Z,27.85
2023-04-16T08:34:52.504Z,27.63
2023-04-16T08:37:18.836Z,28.77
2023-04-16T08:39:45.132Z,32.00
2023-04-16T08:42:18.877Z,25.17
2023-04-16T08:44:49.249Z,28.70
2023-04-16T08:47:16.390Z,26.13
2023-04-16T08:49:45.683Z,27.75
2023-04-16T08:52:18.414Z,27.00
2023-04-16T08:55:00.014Z,26.20
2023-04-16T08:57:33.940Z,27.13
2023-04-16T09:00:03.550Z,25.83
2023-04-16T09:02:31.186Z,24.42
2023-04-16T09:05:00.025Z,33.75
2023-04-16T09:07:29.428Z,26.05
2023-04-16T09:09:59.450Z,26.42
2023-04-16T09:12:26.175Z,25.23
2023-04-16T09:14:52.640Z,23.55
2023-04-16T09:17:19.563Z,27.35
2023-04-16T09:19:46.311Z,20.80
2023-04-16T09:22:12.676Z,22.73
2023-04-16T09:24:39.056Z,22.48
2023-04-16T09:27:05.662Z,20.50
2023-04-16T09:29:39.797Z,22.50
2023-04-16T09:32:08.654Z,23.33
2023-04-16T09:34:53.622Z,22.90
2023-04-16T09:37:20.375Z,21.20
2023-04-16T09:39:54.802Z,21.65
2023-04-16T09:42:23.364Z,21.40
2023-04-16T09:44:49.961Z,22.98
2023-04-16T09:47:16.336Z,22.80
2023-04-16T09:49:45.450Z,20.60
2023-04-16T09:52:19.976Z,24.00
2023-04-16T09:54:50.935Z,21.13
2023-04-16T09:57:22.691Z,25.98
2023-04-16T09:59:53.552Z,21.00
2023-04-16T10:02:20.299Z,22.27
2023-04-16T10:04:51.650Z,23.52
2023-04-16T10:07:18.931Z,18.95
2023-04-16T10:09:47.113Z,20.60
2023-04-16T10:12:13.432Z,22.38
2023-04-16T10:14:40.143Z,22.02
2023-04-16T10:17:07.078Z,21.35
2023-04-16T10:19:33.781Z,22.02
2023-04-16T10:22:00.326Z,22.77
2023-04-16T10:24:28.295Z,23.65
2023-04-16T10:26:55.263Z,21.55
2023-04-16T10:29:22.488Z,18.75
2023-04-16T10:31:50.115Z,18.27
2023-04-16T10:34:17.675Z,19.42
2023-04-16T10:36:49.072Z,15.60
2023-04-16T10:39:19.014Z,15.95
2023-04-16T10:41:45.662Z,17.90
2023-04-16T10:44:12.294Z,17.65
2023-04-16T10:46:43.135Z,16.55
2023-04-16T10:49:22.626Z,19.33
2023-04-16T10:51:53.289Z,15.45
2023-04-16T10:54:23.773Z,18.75
2023-04-16T10:56:50.554Z,19.52
2023-04-16T10:59:21.524Z,18.88
2023-04-16T11:01:50.854Z,17.20
2023-04-16T11:04:20.144Z,16.00
2023-04-16T11:07:07.778Z,15.85
2023-04-16T11:09:57.002Z,14.18
2023-04-16T11:12:33.230Z,16.35
2023-04-16T11:15:03.961Z,16.30
2023-04-16T11:17:38.005Z,15.43
2023-04-16T11:20:25.710Z,18.77
2023-04-16T11:22:56.712Z,17.45
2023-04-16T11:25:28.508Z,17.73
2023-04-16T11:27:55.142Z,15.30
2023-04-16T11:30:35.213Z,16.55
2023-04-16T11:33:08.689Z,16.08
2023-04-16T11:35:35.483Z,13.80
2023-04-16T11:38:01.891Z,12.27
2023-04-16T11:40:31.388Z,11.52
2023-04-16T11:43:13.480Z,10.27
2023-04-16T11:45:53.323Z,11.93
2023-04-16T11:48:19.720Z,11.43
2023-04-16T11:50:55.973Z,12.65
2023-04-16T11:53:24.181Z,10.48
2023-04-16T11:55:50.618Z,12.13
2023-04-16T11:58:17.015Z,12.23
2023-04-16T12:03:10.558Z,12.48
2023-04-16T12:05:39.231Z,14.57
2023-04-16T12:08:09.966Z,14.60
2023-04-16T12:10:52.208Z,13.57
2023-04-16T12:13:18.735Z,13.38
2023-04-16T12:15:56.182Z,16.73
2023-04-16T12:18:25.109Z,18.38
2023-04-16T12:20:51.522Z,18.92
2023-04-16T12:23:31.148Z,19.80
2023-04-16T12:25:58.221Z,20.10
2023-04-16T12:30:58.247Z,19.60
2023-04-16T12:33:24.891Z,16.77
2023-04-16T12:35:51.241Z,17.27
2023-04-16T12:38:17.576Z,16.70
2023-04-16T12:40:43.955Z,17.08
2023-04-16T12:43:10.601Z,14.65
2023-04-16T12:45:38.086Z,17.95
2023-04-16T12:48:04.562Z,16.63
2023-04-16T12:50:31.164Z,17.88
2023-04-16T12:52:58.421Z,16.00
2023-04-16T12:55:25.388Z,15.88
2023-04-16T12:57:52.110Z,16.50
2023-04-16T13:00:19.650Z,14.98
2023-04-16T13:02:46.284Z,19.55
2023-04-16T13:05:12.869Z,17.85
2023-04-16T13:07:39.207Z,19.27
2023-04-16T13:10:06.374Z,15.15
2023-04-16T13:14:59.109Z,14.13
2023-04-16T13:17:25.424Z,13.63
2023-04-16T13:19:51.737Z,15.88
2023-04-16T13:22:18.126Z,15.38
2023-04-16T13:24:44.546Z,13.10
2023-04-16T13:27:10.933Z,21.70
2023-04-16T13:32:14.133Z,16.33
2023-04-16T13:34:40.688Z,17.55
2023-04-16T13:37:07.159Z,17.27
2023-04-16T13:39:33.618Z,14.65
2023-04-16T13:41:59.995Z,17.05
2023-04-16T13:44:28.657Z,15.07
2023-04-16T13:46:55.081Z,18.15
2023-04-16T13:49:21.536Z,18.92
2023-04-16T13:51:47.929Z,16.35
2023-04-16T13:54:14.231Z,16.15
2023-04-16T13:56:40.555Z,17.23
2023-04-16T13:59:09.027Z,18.45
2023-04-16T14:01:35.565Z,16.65
2023-04-16T14:04:01.984Z,17.48
2023-04-16T14:06:31.011Z,14.93
2023-04-16T14:08:57.300Z,16.17
2023-04-16T14:11:23.651Z,14.68
2023-04-16T14:13:50.058Z,16.00
2023-04-16T14:16:16.433Z,15.25
2023-04-16T14:18:42.841Z,15.32
2023-04-16T14:21:09.204Z,13.77
2023-04-16T14:23:35.522Z,15.93
2023-04-16T14:26:01.893Z,13.13
2023-04-16T14:28:31.000Z,12.70
2023-04-16T14:30:57.462Z,14.77
2023-04-16T14:33:23.777Z,14.20
2023-04-16T14:35:50.254Z,14.82
2023-04-16T14:38:16.647Z,16.08
2023-04-16T14:40:43.009Z,15.73
2023-04-16T14:45:44.504Z,13.40
2023-04-16T14:48:10.835Z,14.57
2023-04-16T14:50:37.211Z,16.85
2023-04-16T14:53:06.667Z,13.65
2023-04-16T14:55:33.045Z,14.77
2023-04-16T14:57:59.600Z,14.45
2023-04-16T15:00:26.078Z,15.90
2023-04-16T15:02:53.441Z,15.10
2023-04-16T15:05:19.955Z,16.10
2023-04-16T15:07:46.277Z,13.85
2023-04-16T15:10:13.291Z,14.27
2023-04-16T15:12:39.835Z,12.38
2023-04-16T15:15:07.511Z,34.95
2023-04-16T15:17:33.933Z,16.77
2023-04-16T15:20:02.331Z,15.77
2023-04-16T15:22:31.206Z,15.05
2023-04-16T15:24:57.512Z,13.15
2023-04-16T15:27:23.870Z,13.15
2023-04-16T15:29:50.159Z,11.93
2023-04-16T15:32:16.700Z,13.43
2023-04-16T15:34:43.064Z,15.50
2023-04-16T15:37:09.428Z,15.32
2023-04-16T15:39:35.782Z,14.80
2023-04-16T15:42:06.548Z,14.95
2023-04-16T15:44:34.562Z,16.60
2023-04-16T15:47:00.947Z,16.35
2023-04-16T15:49:27.258Z,13.93
2023-04-16T15:51:53.741Z,16.63
2023-04-16T15:54:20.214Z,16.90
2023-04-16T15:56:47.003Z,16.25
2023-04-16T15:59:13.460Z,12.98
2023-04-16T16:01:39.868Z,11.95
2023-04-16T16:04:07.359Z,12.63
2023-04-16T16:06:34.294Z,15.00
2023-04-16T16:09:00.609Z,12.30
2023-04-16T16:11:27.442Z,13.45
2023-04-16T16:13:53.765Z,14.45
2023-04-16T16:16:20.105Z,11.90
2023-04-16T16:18:46.450Z,12.77
2023-04-16T16:21:12.758Z,14.00
2023-04-16T16:23:39.029Z,12.25
2023-04-16T16:26:05.338Z,12.38
2023-04-16T16:28:32.110Z,13.60
2023-04-16T16:30:58.400Z,13.00
2023-04-16T16:33:24.737Z,14.45
2023-04-16T16:35:52.334Z,11.88
2023-04-16T16:38:18.702Z,12.40
2023-04-16T16:40:44.989Z,12.05
2023-04-16T16:43:11.305Z,12.40
2023-04-16T16:45:38.463Z,13.13
2023-04-16T16:50:32.164Z,11.35
2023-04-16T16:52:59.387Z,11.20
2023-04-16T16:55:26.318Z,12.05
2023-04-16T16:57:53.102Z,11.30
2023-04-16T17:00:19.624Z,11.05
2023-04-16T17:02:46.376Z,12.30
2023-04-16T17:05:12.845Z,9.98
2023-04-16T17:07:39.219Z,12.18
2023-04-16T17:10:06.984Z,13.40
2023-04-16T17:12:33.498Z,12.88
2023-04-16T17:14:59.840Z,14.20
2023-04-16T17:17:26.957Z,13.18
2023-04-16T17:22:22.187Z,14.82
2023-04-16T17:24:50.652Z,13.85
2023-04-16T17:27:16.943Z,14.65
2023-04-16T17:29:43.535Z,16.20
2023-04-16T17:32:10.048Z,15.85
2023-04-16T17:34:36.423Z,15.98
2023-04-16T17:37:02.737Z,15.35
2023-04-16T17:39:29.118Z,14.02
2023-04-16T17:41:55.409Z,17.00
2023-04-16T17:44:21.704Z,18.10
2023-04-16T17:46:48.015Z,15.73
2023-04-16T17:49:14.361Z,15.32
2023-04-16T17:51:41.543Z,14.95
2023-04-16T17:56:35.919Z,15.73
2023-04-16T17:59:02.255Z,16.23
2023-04-16T18:01:28.730Z,18.23
2023-04-16T18:03:55.432Z,17.40
2023-04-16T18:06:22.068Z,13.93
2023-04-16T18:08:48.352Z,16.00
2023-04-16T18:11:14.684Z,15.10
2023-04-16T18:13:41.055Z,12.50
2023-04-16T18:16:14.235Z,14.65
2023-04-16T18:21:06.796Z,14.88
2023-04-16T18:23:33.146Z,12.85
2023-04-16T18:25:59.980Z,16.10
2023-04-16T18:28:27.098Z,18.67
2023-04-16T18:33:48.666Z,12.60
2023-04-16T18:36:03.105Z,15.38
2023-04-16T18:38:29.596Z,14.70
2023-04-16T18:40:56.276Z,15.25
2023-04-16T18:43:22.956Z,15.52
2023-04-16T18:45:49.434Z,19.77
2023-04-16T18:48:15.715Z,15.57
2023-04-16T18:50:42.254Z,17.98
2023-04-16T18:53:12.222Z,15.90
2023-04-16T18:58:03.676Z,18.05
2023-04-16T19:00:30.043Z,16.20
2023-04-16T19:02:56.447Z,16.08
2023-04-16T19:05:22.808Z,16.45
2023-04-16T19:07:49.141Z,15.55
2023-04-16T19:10:15.519Z,15.77
2023-04-16T19:12:41.865Z,18.27
2023-04-16T19:15:11.394Z,15.85
2023-04-16T19:17:37.746Z,16.02
2023-04-16T19:20:04.475Z,16.90
2023-04-16T19:22:30.779Z,18.10
2023-04-16T19:24:57.128Z,16.02
2023-04-16T19:27:23.444Z,17.65
2023-04-16T19:29:49.783Z,17.23
2023-04-16T19:32:16.115Z,21.75
2023-04-16T19:34:42.411Z,17.65
2023-04-16T19:37:08.716Z,17.30
2023-04-16T19:39:35.056Z,19.92
2023-04-16T19:42:01.381Z,14.27
2023-04-16T19:44:27.746Z,15.82
2023-04-16T19:46:54.055Z,16.75
2023-04-16T19:49:20.384Z,16.45
2023-04-16T19:51:46.692Z,18.63
2023-04-16T19:54:13.049Z,16.73
2023-04-16T19:56:39.400Z,19.52
2023-04-16T19:59:05.706Z,18.30
2023-04-16T20:01:32.057Z,20.33
2023-04-16T20:03:58.556Z,17.20
2023-04-16T20:06:24.862Z,17.88
2023-04-16T20:08:51.165Z,17.80
2023-04-16T20:11:17.490Z,17.63
2023-04-16T20:13:47.468Z,19.52
2023-04-16T20:16:14.032Z,17.27
2023-04-16T20:18:40.671Z,19.73
2023-04-16T20:21:07.756Z,18.15
2023-04-16T20:23:34.080Z,21.10
2023-04-16T20:26:00.509Z,22.05
2023-04-16T20:28:26.898Z,21.23
2023-04-16T20:30:53.217Z,20.55
2023-04-16T20:33:19.532Z,17.33
2023-04-16T20:35:46.976Z,21.17
2023-04-16T20:38:13.286Z,18.80
2023-04-16T20:40:39.582Z,19.70
2023-04-16T20:43:05.887Z,18.60
2023-04-16T20:45:32.260Z,19.30
2023-04-16T20:47:59.027Z,19.63
2023-04-16T20:50:25.427Z,19.58
2023-04-16T20:52:51.862Z,20.13
2023-04-16T20:55:18.582Z,18.30
2023-04-16T20:57:44.903Z,19.45
2023-04-16T21:00:14.985Z,22.33
2023-04-16T21:02:41.537Z,20.38
2023-04-16T21:05:08.464Z,19.27
2023-04-16T21:07:34.844Z,18.67
2023-04-16T21:10:01.196Z,18.75
2023-04-16T21:12:27.647Z,17.58
2023-04-16T21:14:53.966Z,21.65
2023-04-16T21:17:20.302Z,21.17
2023-04-16T21:19:46.641Z,18.73
2023-04-16T21:22:12.939Z,20.77
2023-04-16T21:24:39.267Z,16.67
2023-04-16T21:27:05.594Z,18.73
2023-04-16T21:29:32.527Z,17.83
2023-04-16T21:31:59.060Z,19.73
2023-04-16T21:34:25.495Z,20.08
2023-04-16T21:36:51.863Z,20.77
2023-04-16T21:39:18.205Z,17.83
2023-04-16T21:41:44.519Z,18.98
2023-04-16T21:44:11.056Z,20.38
2023-04-16T21:46:37.365Z,21.13
2023-04-16T21:49:03.725Z,20.80
2023-04-16T21:51:30.018Z,26.98
2023-04-16T21:53:56.973Z,20.45
2023-04-16T21:56:24.146Z,20.15
2023-04-16T21:58:51.666Z,23.58
2023-04-16T22:01:18.009Z,20.50
2023-04-16T22:03:44.759Z,19.20
2023-04-16T22:06:11.256Z,22.10
2023-04-16T22:08:37.619Z,23.02
2023-04-16T22:11:03.990Z,24.27
2023-04-16T22:13:31.062Z,20.90
2023-04-16T22:15:57.942Z,21.92
2023-04-16T22:18:24.349Z,24.17
2023-04-16T22:20:53.052Z,20.42
2023-04-16T22:23:19.343Z,20.83
2023-04-16T22:25:45.655Z,20.75
2023-04-16T22:28:12.017Z,23.60
2023-04-16T22:30:38.385Z,24.95
2023-04-16T22:33:04.890Z,23.77
2023-04-16T22:35:31.266Z,19.90
2023-04-16T22:37:57.598Z,23.33
2023-04-16T22:40:24.005Z,22.05
2023-04-16T22:42:50.363Z,21.88
2023-04-16T22:45:16.725Z,22.13
2023-04-16T22:47:43.033Z,21.20
2023-04-16T22:50:09.629Z,22.83
2023-04-16T22:52:36.452Z,22.50
2023-04-16T22:55:02.882Z,18.50
2023-04-16T22:57:29.196Z,20.50
2023-04-16T22:59:55.536Z,22.08
2023-04-16T23:02:21.890Z,18.58
2023-04-16T23:04:48.305Z,21.02
2023-04-16T23:07:15.134Z,18.77
2023-04-16T23:09:41.708Z,24.52
2023-04-16T23:12:08.267Z,22.10
2023-04-16T23:14:34.604Z,22.13
2023-04-16T23:17:00.908Z,22.40
2023-04-16T23:19:27.203Z,19.50
2023-04-16T23:21:53.536Z,21.13
2023-04-16T23:24:19.872Z,17.67
2023-04-16T23:26:46.218Z,20.02
2023-04-16T23:29:12.699Z,22.17
2023-04-16T23:31:39.307Z,18.63
2023-04-16T23:34:05.657Z,20.33
2023-04-16T23:36:34.521Z,17.63
2023-04-16T23:39:00.879Z,21.70
2023-04-16T23:41:27.226Z,20.45
2023-04-16T23:43:53.568Z,18.67
2023-04-16T23:46:19.929Z,22.52
2023-04-16T23:48:46.274Z,21.38
2023-04-16T23:51:12.622Z,20.65
2023-04-16T23:53:38.972Z,21.80
2023-04-16T23:56:05.658Z,18.77
2023-04-16T23:58:31.989Z,22.88
